San Francisco International Airport
KSFO : rendu visible

Aérodrome :











RETROUVEZ-NOUS SUR...

 
LOGIN :

S'inscrire | Disclaimer

   EN    FR    IT 

 









Légende :    VFR   VFR Marginal   IFR   IFR Intensif   IFR Très Intensif
Visi : 
Plafond : 
>= 8 km
>= 3000ft
5 à 8 km
1000 à 3000 ft
1500m à 5 km
500 à 1000 ft
800 à 1500m
200 à 500 ft
< 800m
< 200 ft
Symboles :   Orages  Brouillard  Fortes neiges  Fortes précipitations  Vent > 20 kt






- Altitude de l'aérodrome : 13 ft
- Code IATA : SFO


KSFO - San Francisco International

DERNIER METAR :
  • 290856Z 14006KT 10SM FEW035 BKN050 OVC065 12/08 A3013 RMK AO2 SLP201 T01170083 58005

METARs EXPIRÉS :
  • 290756Z 16006KT 10SM FEW032 BKN040 12/08 A3013 RMK AO2 SLP204 T01170083 401440100
  • 290656Z 15005KT 10SM FEW030 BKN038 OVC046 12/08 A3014 RMK AO2 SLP204 T01220078

TAF KSFO
Valide du 29 à 06h jusqu'au 30 à 12h UTC


290541Z 2906/3012 19005KT P6SM VCSH BKN050 OVC080
FM291100 15005KT P6SM -SHRA BKN030 OVC050
TEMPO 2911/2915 2SM SHRA BR BKN015 OVC030
FM291500 21009KT 5SM -SHRA BR BKN015 OVC030
FM292100 28015KT P6SM VCSH SCT030 OVC040
FM300500 26008KT P6SM VCSH SCT025 OVC030



MET'MAP, la Météo Aéronautique d'un coup d'oeil ! - Copyright ORBIFLY Décembre 2007 - Disclaimer

ORBIFLY MET'MAP TEAM :

Programmation & Développement : Alexandra Zaïnal
Sur une idée originale de : Baudouin d'Aumeries
Assistance à la programmation : Marc-Olivier Méhu
Soutien technique & logistique : Manuel Goepfert

Contact : metmap@orbifly.com




SOURCES & CREDITS :

   NOAA       Earth
Advisory